ADDS TAF Board (Experimental) INFO Settings
IDs: Format: Expanded Condensed

KORD - Chicago/O'Hare Intl, IL, US

Issued at 1120 UTC 24 May 2016
Updated at: 1140 UTC 24 May 2016
Time1051Z 24/12Z 24/13Z 24/14Z 24/15Z 24/16Z 24/17Z 24/18Z 24/19Z 24/20Z 24/21Z 24/22Z 24/23Z 25/00Z
Type OBS PRVL PRVL PRVL PRVL PRVL PRVL PRVL PRVL PRVL PRVL PRVL PRVL PRVL
VIS 10 >6 >6 >6 >6 >6 >6 >6 >6 >6 >6 >6 >6 >6
CIG 250 -- -- -- 250 250 250 250 250 250 250 250 250 250
Cover BKN SCT SCT SCT BKN BKN BKN BKN BKN BKN BKN BKN BKN BKN
FltCat VFR VFR VFR VFR VFR VFR VFR VFR VFR VFR VFR VFR VFR VFR
WX -- -- -- -- -- -- -- -- -- -- -- -- -- --
WDir VRB 200 200 200 200 200 200 200 200 200 200 200 200 200
WSpd 0 8 8 8 12 12 12 12 12 12 12 12 12 12
WGst -- -- -- -- -- -- -- -- -- -- -- -- -- --
R04/22
XWnd VRB -3 -3 -3 -4 -4 -4 -4 -4 -4 -4 -4 -4 -4
HWnd VRB -8 -8 -8 -11 -11 -11 -11 -11 -11 -11 -11 -11 -11
R09/27
XWnd VRB -8 -8 -8 -11 -11 -11 -11 -11 -11 -11 -11 -11 -11
HWnd VRB -3 -3 -3 -4 -4 -4 -4 -4 -4 -4 -4 -4 -4
R10/28
XWnd VRB -8 -8 -8 -11 -11 -11 -11 -11 -11 -11 -11 -11 -11
HWnd VRB -3 -3 -3 -4 -4 -4 -4 -4 -4 -4 -4 -4 -4
R14/32
XWnd VRB -7 -7 -7 -10 -10 -10 -10 -10 -10 -10 -10 -10 -10
HWnd VRB 4 4 4 6 6 6 6 6 6 6 6 6 6

NOTE: TEMPO conditions in [brackets]. Keep in mind TEMPO conditions might be better (lower impact) than prevailing conditions.

Raw TAF
KORD 241120Z 2412/2518 20008KT P6SM SCT250
  FM241500 20012KT P6SM SCT050 BKN250
  FM250100 21007KT P6SM BKN250
  FM250900 20005KT 6SM BR SCT025 BKN050
  FM251400 16007KT P6SM SCT050 BKN120


Raw METAR
KORD 241051Z 00000KT 10SM BKN250 16/08 A2997 RMK AO2 SLP145 T01610078 $
KORD 240951Z 22004KT 10SM BKN250 18/08 A2996 RMK AO2 SLP142 T01780078 $
KORD 240851Z 20009KT 10SM BKN250 19/07 A2995 RMK AO2 SLP137 T01890072 52005 $

METAR Board
Radar Display
Forecast Discussion

TAF Board Legend

Potential Impact
Threat None Slight Moderate High
Visibility (sm) ≥5.1 5.1>X≥3 3>X≥1 <1
Ceiling (100 ft) ≥30.1 30.1>X≥10 10>X≥5 <5
Wind Speed (kt) <10 10≤X<20 20≤X<30 ≥30
Wind Gust (kt) <15 15≤X<25 25≤X<35 ≥35
Weather No Wx Reported VCTS,-TS,-FZRA,SN TS,FZRA +TS,+FZRA,+SN